sensor_id;sensor_type;location;lat;lon;timestamp;P1;durP1;ratioP1;P2;durP2;ratioP2
16809;SDS011;51744;50.872;4.730;2023-03-16T00:00:56;6.57;;;4.95;;
16809;SDS011;51744;50.872;4.730;2023-03-16T00:03:48;6.45;;;4.80;;
16809;SDS011;51744;50.872;4.730;2023-03-16T00:06:35;6.57;;;4.60;;
16809;SDS011;51744;50.872;4.730;2023-03-16T00:09:23;6.53;;;4.70;;
16809;SDS011;51744;50.872;4.730;2023-03-16T00:12:16;6.35;;;4.88;;
16809;SDS011;51744;50.872;4.730;2023-03-16T00:15:05;5.93;;;4.90;;
16809;SDS011;51744;50.872;4.730;2023-03-16T00:17:53;6.07;;;4.80;;
16809;SDS011;51744;50.872;4.730;2023-03-16T00:20:40;6.75;;;4.82;;
16809;SDS011;51744;50.872;4.730;2023-03-16T00:23:27;6.95;;;5.35;;
16809;SDS011;51744;50.872;4.730;2023-03-16T00:26:21;6.05;;;4.88;;
16809;SDS011;51744;50.872;4.730;2023-03-16T00:29:10;5.80;;;4.75;;
16809;SDS011;51744;50.872;4.730;2023-03-16T00:31:58;6.00;;;5.00;;
16809;SDS011;51744;50.872;4.730;2023-03-16T00:34:46;6.60;;;5.30;;
16809;SDS011;51744;50.872;4.730;2023-03-16T00:37:33;8.10;;;5.90;;
16809;SDS011;51744;50.872;4.730;2023-03-16T00:40:23;7.80;;;5.90;;
16809;SDS011;51744;50.872;4.730;2023-03-16T00:43:12;7.38;;;5.30;;
16809;SDS011;51744;50.872;4.730;2023-03-16T00:46:03;6.03;;;5.17;;
16809;SDS011;51744;50.872;4.730;2023-03-16T00:48:51;6.50;;;4.90;;
16809;SDS011;51744;50.872;4.730;2023-03-16T00:51:39;6.53;;;4.77;;
16809;SDS011;51744;50.872;4.730;2023-03-16T00:54:30;6.65;;;4.80;;
16809;SDS011;51744;50.872;4.730;2023-03-16T00:57:18;5.82;;;4.60;;
16809;SDS011;51744;50.872;4.730;2023-03-16T01:00:09;7.10;;;4.60;;
16809;SDS011;51744;50.872;4.730;2023-03-16T01:03:00;5.93;;;4.45;;
16809;SDS011;51744;50.872;4.730;2023-03-16T01:05:47;5.25;;;4.65;;
16809;SDS011;51744;50.872;4.730;2023-03-16T01:08:35;6.10;;;4.85;;
16809;SDS011;51744;50.872;4.730;2023-03-16T01:11:25;5.37;;;4.17;;
16809;SDS011;51744;50.872;4.730;2023-03-16T01:14:13;4.57;;;4.18;;
16809;SDS011;51744;50.872;4.730;2023-03-16T01:17:02;5.93;;;4.13;;
16809;SDS011;51744;50.872;4.730;2023-03-16T01:19:53;5.90;;;3.80;;
16809;SDS011;51744;50.872;4.730;2023-03-16T01:22:40;5.13;;;3.95;;
16809;SDS011;51744;50.872;4.730;2023-03-16T01:25:28;5.45;;;3.63;;
16809;SDS011;51744;50.872;4.730;2023-03-16T01:28:16;5.25;;;4.10;;
16809;SDS011;51744;50.872;4.730;2023-03-16T01:31:06;5.50;;;3.83;;
16809;SDS011;51744;50.872;4.730;2023-03-16T01:33:56;5.97;;;3.65;;
16809;SDS011;51744;50.872;4.730;2023-03-16T01:36:47;4.95;;;3.50;;
16809;SDS011;51744;50.872;4.730;2023-03-16T01:39:43;5.33;;;3.70;;
16809;SDS011;51744;50.872;4.730;2023-03-16T01:42:31;5.43;;;3.67;;
16809;SDS011;51744;50.872;4.730;2023-03-16T01:49:12;5.35;;;3.60;;
16809;SDS011;51744;50.872;4.730;2023-03-16T01:52:05;7.50;;;3.78;;
16809;SDS011;51744;50.872;4.730;2023-03-16T01:54:54;5.00;;;3.15;;
16809;SDS011;51744;50.872;4.730;2023-03-16T01:57:45;5.60;;;3.28;;
16809;SDS011;51744;50.872;4.730;2023-03-16T02:00:33;5.50;;;3.30;;
16809;SDS011;51744;50.872;4.730;2023-03-16T02:03:30;6.33;;;3.30;;
16809;SDS011;51744;50.872;4.730;2023-03-16T02:06:33;4.68;;;3.33;;
16809;SDS011;51744;50.872;4.730;2023-03-16T02:09:22;7.93;;;3.60;;
16809;SDS011;51744;50.872;4.730;2023-03-16T02:12:10;5.25;;;3.20;;
16809;SDS011;51744;50.872;4.730;2023-03-16T02:15:07;5.10;;;3.20;;
16809;SDS011;51744;50.872;4.730;2023-03-16T02:17:56;7.15;;;3.60;;
16809;SDS011;51744;50.872;4.730;2023-03-16T02:20:47;7.03;;;3.80;;
16809;SDS011;51744;50.872;4.730;2023-03-16T02:23:42;6.22;;;3.80;;
16809;SDS011;51744;50.872;4.730;2023-03-16T02:26:33;5.88;;;3.60;;
16809;SDS011;51744;50.872;4.730;2023-03-16T02:32:58;8.00;;;4.05;;
16809;SDS011;51744;50.872;4.730;2023-03-16T02:35:46;6.18;;;3.50;;
16809;SDS011;51744;50.872;4.730;2023-03-16T02:38:34;6.97;;;3.67;;
16809;SDS011;51744;50.872;4.730;2023-03-16T02:41:21;6.53;;;3.95;;
16809;SDS011;51744;50.872;4.730;2023-03-16T02:44:13;6.13;;;3.85;;
16809;SDS011;51744;50.872;4.730;2023-03-16T02:47:06;6.25;;;4.05;;
16809;SDS011;51744;50.872;4.730;2023-03-16T02:49:58;6.80;;;3.70;;
16809;SDS011;51744;50.872;4.730;2023-03-16T02:52:47;7.25;;;3.95;;
16809;SDS011;51744;50.872;4.730;2023-03-16T02:55:34;6.95;;;3.90;;
16809;SDS011;51744;50.872;4.730;2023-03-16T02:58:21;4.85;;;3.30;;
16809;SDS011;51744;50.872;4.730;2023-03-16T03:01:09;6.13;;;3.55;;
16809;SDS011;51744;50.872;4.730;2023-03-16T03:03:58;5.43;;;3.65;;
16809;SDS011;51744;50.872;4.730;2023-03-16T03:06:45;5.30;;;3.72;;
16809;SDS011;51744;50.872;4.730;2023-03-16T03:09:32;6.63;;;4.00;;
16809;SDS011;51744;50.872;4.730;2023-03-16T03:12:20;7.30;;;4.20;;
16809;SDS011;51744;50.872;4.730;2023-03-16T03:15:08;7.75;;;4.28;;
16809;SDS011;51744;50.872;4.730;2023-03-16T03:18:18;8.13;;;4.57;;
16809;SDS011;51744;50.872;4.730;2023-03-16T03:21:07;6.20;;;4.13;;
16809;SDS011;51744;50.872;4.730;2023-03-16T03:23:55;6.47;;;4.78;;
16809;SDS011;51744;50.872;4.730;2023-03-16T03:26:41;7.75;;;4.68;;
16809;SDS011;51744;50.872;4.730;2023-03-16T03:29:36;8.55;;;4.78;;
16809;SDS011;51744;50.872;4.730;2023-03-16T03:32:23;6.97;;;5.00;;
16809;SDS011;51744;50.872;4.730;2023-03-16T03:35:11;9.05;;;5.25;;
16809;SDS011;51744;50.872;4.730;2023-03-16T03:38:01;8.05;;;5.20;;
16809;SDS011;51744;50.872;4.730;2023-03-16T03:40:49;8.10;;;5.40;;
16809;SDS011;51744;50.872;4.730;2023-03-16T03:43:37;8.38;;;5.45;;
16809;SDS011;51744;50.872;4.730;2023-03-16T03:46:30;8.90;;;5.35;;
16809;SDS011;51744;50.872;4.730;2023-03-16T03:49:18;8.38;;;4.90;;
16809;SDS011;51744;50.872;4.730;2023-03-16T03:52:06;7.47;;;4.70;;
16809;SDS011;51744;50.872;4.730;2023-03-16T03:54:55;8.93;;;5.60;;
16809;SDS011;51744;50.872;4.730;2023-03-16T03:57:43;7.22;;;5.10;;
16809;SDS011;51744;50.872;4.730;2023-03-16T04:00:30;7.47;;;5.50;;
16809;SDS011;51744;50.872;4.730;2023-03-16T04:03:18;8.45;;;5.70;;
16809;SDS011;51744;50.872;4.730;2023-03-16T04:06:06;7.75;;;5.32;;
16809;SDS011;51744;50.872;4.730;2023-03-16T04:08:53;7.78;;;5.25;;
16809;SDS011;51744;50.872;4.730;2023-03-16T04:11:46;11.45;;;5.50;;
16809;SDS011;51744;50.872;4.730;2023-03-16T04:14:34;7.32;;;5.32;;
16809;SDS011;51744;50.872;4.730;2023-03-16T04:17:25;8.18;;;5.22;;
16809;SDS011;51744;50.872;4.730;2023-03-16T04:20:16;7.82;;;5.15;;
16809;SDS011;51744;50.872;4.730;2023-03-16T04:23:05;7.30;;;5.53;;
16809;SDS011;51744;50.872;4.730;2023-03-16T04:25:55;7.80;;;5.00;;
16809;SDS011;51744;50.872;4.730;2023-03-16T04:28:44;10.25;;;5.10;;
16809;SDS011;51744;50.872;4.730;2023-03-16T04:31:34;7.82;;;4.70;;
16809;SDS011;51744;50.872;4.730;2023-03-16T04:34:22;8.43;;;5.00;;
16809;SDS011;51744;50.872;4.730;2023-03-16T04:37:13;7.82;;;4.90;;
16809;SDS011;51744;50.872;4.730;2023-03-16T04:40:01;9.57;;;4.93;;
16809;SDS011;51744;50.872;4.730;2023-03-16T04:42:56;7.00;;;4.38;;
16809;SDS011;51744;50.872;4.730;2023-03-16T04:45:45;7.55;;;4.93;;
16809;SDS011;51744;50.872;4.730;2023-03-16T04:48:32;6.82;;;4.40;;
16809;SDS011;51744;50.872;4.730;2023-03-16T04:51:22;8.50;;;4.60;;
16809;SDS011;51744;50.872;4.730;2023-03-16T04:54:32;6.97;;;4.30;;
16809;SDS011;51744;50.872;4.730;2023-03-16T04:57:19;6.80;;;4.28;;
16809;SDS011;51744;50.872;4.730;2023-03-16T05:00:10;7.93;;;4.70;;
16809;SDS011;51744;50.872;4.730;2023-03-16T05:03:18;7.35;;;4.28;;
16809;SDS011;51744;50.872;4.730;2023-03-16T05:06:06;6.27;;;4.40;;
16809;SDS011;51744;50.872;4.730;2023-03-16T05:08:54;5.93;;;4.50;;
16809;SDS011;51744;50.872;4.730;2023-03-16T05:11:41;7.25;;;4.60;;
16809;SDS011;51744;50.872;4.730;2023-03-16T05:14:30;6.75;;;4.50;;
16809;SDS011;51744;50.872;4.730;2023-03-16T05:17:43;7.43;;;4.35;;
16809;SDS011;51744;50.872;4.730;2023-03-16T05:20:33;7.03;;;4.20;;
16809;SDS011;51744;50.872;4.730;2023-03-16T05:23:21;6.68;;;4.13;;
16809;SDS011;51744;50.872;4.730;2023-03-16T05:26:15;5.90;;;4.30;;
16809;SDS011;51744;50.872;4.730;2023-03-16T05:29:03;7.75;;;4.63;;
16809;SDS011;51744;50.872;4.730;2023-03-16T05:31:50;6.03;;;4.40;;
16809;SDS011;51744;50.872;4.730;2023-03-16T05:34:40;7.57;;;4.50;;
16809;SDS011;51744;50.872;4.730;2023-03-16T05:37:30;8.68;;;4.30;;
16809;SDS011;51744;50.872;4.730;2023-03-16T05:40:19;6.45;;;4.25;;
16809;SDS011;51744;50.872;4.730;2023-03-16T05:43:20;8.35;;;4.47;;
16809;SDS011;51744;50.872;4.730;2023-03-16T05:46:10;5.60;;;4.10;;
16809;SDS011;51744;50.872;4.730;2023-03-16T05:48:58;5.95;;;4.22;;
16809;SDS011;51744;50.872;4.730;2023-03-16T05:51:46;5.28;;;4.00;;
16809;SDS011;51744;50.872;4.730;2023-03-16T05:54:36;6.75;;;4.28;;
16809;SDS011;51744;50.872;4.730;2023-03-16T05:57:26;7.68;;;4.40;;
16809;SDS011;51744;50.872;4.730;2023-03-16T06:00:16;6.88;;;4.30;;
16809;SDS011;51744;50.872;4.730;2023-03-16T06:03:13;6.75;;;4.47;;
16809;SDS011;51744;50.872;4.730;2023-03-16T06:06:01;7.97;;;3.90;;
16809;SDS011;51744;50.872;4.730;2023-03-16T06:08:54;4.85;;;3.60;;
16809;SDS011;51744;50.872;4.730;2023-03-16T06:11:45;5.97;;;3.92;;
16809;SDS011;51744;50.872;4.730;2023-03-16T06:14:34;7.80;;;4.20;;
16809;SDS011;51744;50.872;4.730;2023-03-16T06:17:21;5.57;;;4.22;;
16809;SDS011;51744;50.872;4.730;2023-03-16T06:20:09;7.03;;;3.80;;
16809;SDS011;51744;50.872;4.730;2023-03-16T06:23:00;5.20;;;3.33;;
16809;SDS011;51744;50.872;4.730;2023-03-16T06:25:49;5.95;;;3.75;;
16809;SDS011;51744;50.872;4.730;2023-03-16T06:28:43;5.57;;;3.10;;
16809;SDS011;51744;50.872;4.730;2023-03-16T06:31:30;6.43;;;3.38;;
16809;SDS011;51744;50.872;4.730;2023-03-16T06:34:19;6.20;;;3.40;;
16809;SDS011;51744;50.872;4.730;2023-03-16T06:37:07;6.90;;;3.33;;
16809;SDS011;51744;50.872;4.730;2023-03-16T06:39:54;6.95;;;3.15;;
16809;SDS011;51744;50.872;4.730;2023-03-16T06:42:42;5.25;;;3.20;;
16809;SDS011;51744;50.872;4.730;2023-03-16T06:45:35;5.40;;;3.08;;
16809;SDS011;51744;50.872;4.730;2023-03-16T06:48:23;5.45;;;3.30;;
16809;SDS011;51744;50.872;4.730;2023-03-16T06:51:10;5.70;;;3.40;;
16809;SDS011;51744;50.872;4.730;2023-03-16T06:54:02;5.40;;;3.00;;
16809;SDS011;51744;50.872;4.730;2023-03-16T06:56:53;6.28;;;3.20;;
16809;SDS011;51744;50.872;4.730;2023-03-16T06:59:41;5.20;;;3.30;;
16809;SDS011;51744;50.872;4.730;2023-03-16T07:02:30;4.32;;;3.17;;
16809;SDS011;51744;50.872;4.730;2023-03-16T07:05:20;6.20;;;3.08;;
16809;SDS011;51744;50.872;4.730;2023-03-16T07:08:08;5.03;;;3.17;;
16809;SDS011;51744;50.872;4.730;2023-03-16T07:10:56;5.10;;;3.17;;
16809;SDS011;51744;50.872;4.730;2023-03-16T07:13:44;6.75;;;3.05;;
16809;SDS011;51744;50.872;4.730;2023-03-16T07:16:33;5.80;;;3.10;;
16809;SDS011;51744;50.872;4.730;2023-03-16T07:19:23;5.00;;;3.08;;
16809;SDS011;51744;50.872;4.730;2023-03-16T07:22:13;6.10;;;3.00;;
16809;SDS011;51744;50.872;4.730;2023-03-16T07:25:01;4.47;;;3.00;;
16809;SDS011;51744;50.872;4.730;2023-03-16T07:27:48;4.30;;;2.78;;
16809;SDS011;51744;50.872;4.730;2023-03-16T07:30:41;4.78;;;2.97;;
16809;SDS011;51744;50.872;4.730;2023-03-16T07:33:48;4.22;;;2.83;;
16809;SDS011;51744;50.872;4.730;2023-03-16T07:36:46;7.00;;;3.30;;
16809;SDS011;51744;50.872;4.730;2023-03-16T07:39:34;5.68;;;3.20;;
16809;SDS011;51744;50.872;4.730;2023-03-16T07:42:26;5.57;;;3.07;;
16809;SDS011;51744;50.872;4.730;2023-03-16T07:45:25;5.35;;;3.10;;
16809;SDS011;51744;50.872;4.730;2023-03-16T07:48:13;5.22;;;2.90;;
16809;SDS011;51744;50.872;4.730;2023-03-16T07:51:07;4.85;;;2.90;;
16809;SDS011;51744;50.872;4.730;2023-03-16T07:53:55;4.45;;;3.08;;
16809;SDS011;51744;50.872;4.730;2023-03-16T07:56:47;5.18;;;2.90;;
16809;SDS011;51744;50.872;4.730;2023-03-16T08:00:03;5.25;;;2.80;;
16809;SDS011;51744;50.872;4.730;2023-03-16T08:02:57;4.87;;;2.60;;
16809;SDS011;51744;50.872;4.730;2023-03-16T08:05:45;4.40;;;2.57;;
16809;SDS011;51744;50.872;4.730;2023-03-16T08:08:34;5.55;;;2.55;;
16809;SDS011;51744;50.872;4.730;2023-03-16T08:11:23;3.90;;;2.65;;
16809;SDS011;51744;50.872;4.730;2023-03-16T08:14:16;4.05;;;2.50;;
16809;SDS011;51744;50.872;4.730;2023-03-16T08:17:22;4.40;;;2.38;;
16809;SDS011;51744;50.872;4.730;2023-03-16T08:20:11;5.57;;;2.45;;
16809;SDS011;51744;50.872;4.730;2023-03-16T08:23:01;5.22;;;2.58;;
16809;SDS011;51744;50.872;4.730;2023-03-16T08:25:55;4.63;;;2.53;;
16809;SDS011;51744;50.872;4.730;2023-03-16T08:28:46;4.63;;;2.23;;
16809;SDS011;51744;50.872;4.730;2023-03-16T08:31:37;4.90;;;2.13;;
16809;SDS011;51744;50.872;4.730;2023-03-16T08:34:30;5.07;;;2.25;;
16809;SDS011;51744;50.872;4.730;2023-03-16T08:37:20;5.65;;;2.30;;
16809;SDS011;51744;50.872;4.730;2023-03-16T08:40:11;4.57;;;2.20;;
16809;SDS011;51744;50.872;4.730;2023-03-16T08:43:01;3.65;;;2.40;;
16809;SDS011;51744;50.872;4.730;2023-03-16T08:45:51;4.20;;;2.35;;
16809;SDS011;51744;50.872;4.730;2023-03-16T08:48:44;3.92;;;2.20;;
16809;SDS011;51744;50.872;4.730;2023-03-16T09:22:39;3.75;;;2.20;;
16809;SDS011;51744;50.872;4.730;2023-03-16T09:25:27;3.55;;;2.22;;
16809;SDS011;51744;50.872;4.730;2023-03-16T09:28:15;4.70;;;2.20;;
16809;SDS011;51744;50.872;4.730;2023-03-16T09:31:06;2.90;;;2.17;;
16809;SDS011;51744;50.872;4.730;2023-03-16T09:33:54;3.23;;;2.00;;
16809;SDS011;51744;50.872;4.730;2023-03-16T09:36:43;4.95;;;2.35;;
16809;SDS011;51744;50.872;4.730;2023-03-16T09:39:31;3.45;;;2.15;;
16809;SDS011;51744;50.872;4.730;2023-03-16T09:42:19;4.15;;;1.90;;
16809;SDS011;51744;50.872;4.730;2023-03-16T09:45:13;4.00;;;2.08;;
16809;SDS011;51744;50.872;4.730;2023-03-16T09:48:07;2.30;;;2.00;;
16809;SDS011;51744;50.872;4.730;2023-03-16T09:50:57;5.50;;;2.20;;
16809;SDS011;51744;50.872;4.730;2023-03-16T09:53:49;3.45;;;2.20;;
16809;SDS011;51744;50.872;4.730;2023-03-16T09:56:43;4.68;;;2.20;;
16809;SDS011;51744;50.872;4.730;2023-03-16T09:59:34;3.20;;;2.30;;
16809;SDS011;51744;50.872;4.730;2023-03-16T10:02:36;4.80;;;2.22;;
16809;SDS011;51744;50.872;4.730;2023-03-16T10:05:33;2.83;;;2.10;;
16809;SDS011;51744;50.872;4.730;2023-03-16T10:08:21;3.25;;;2.28;;
16809;SDS011;51744;50.872;4.730;2023-03-16T10:11:16;4.97;;;2.50;;
16809;SDS011;51744;50.872;4.730;2023-03-16T10:14:14;4.38;;;2.40;;
16809;SDS011;51744;50.872;4.730;2023-03-16T10:17:08;4.50;;;2.30;;
16809;SDS011;51744;50.872;4.730;2023-03-16T10:20:02;4.13;;;2.08;;
16809;SDS011;51744;50.872;4.730;2023-03-16T10:22:53;2.90;;;1.83;;
16809;SDS011;51744;50.872;4.730;2023-03-16T10:25:45;3.10;;;1.98;;
16809;SDS011;51744;50.872;4.730;2023-03-16T10:28:35;3.22;;;2.08;;
16809;SDS011;51744;50.872;4.730;2023-03-16T10:31:23;3.03;;;1.80;;
16809;SDS011;51744;50.872;4.730;2023-03-16T10:34:10;3.30;;;2.00;;
16809;SDS011;51744;50.872;4.730;2023-03-16T10:36:57;4.15;;;2.00;;
16809;SDS011;51744;50.872;4.730;2023-03-16T10:39:47;2.50;;;1.88;;
16809;SDS011;51744;50.872;4.730;2023-03-16T10:42:34;3.60;;;1.70;;
16809;SDS011;51744;50.872;4.730;2023-03-16T10:45:25;5.28;;;1.70;;
16809;SDS011;51744;50.872;4.730;2023-03-16T10:48:17;3.60;;;1.70;;
16809;SDS011;51744;50.872;4.730;2023-03-16T10:51:06;2.80;;;1.60;;
16809;SDS011;51744;50.872;4.730;2023-03-16T10:54:01;2.50;;;1.90;;
16809;SDS011;51744;50.872;4.730;2023-03-16T10:56:55;2.30;;;1.60;;
16809;SDS011;51744;50.872;4.730;2023-03-16T10:59:46;3.17;;;1.70;;
16809;SDS011;51744;50.872;4.730;2023-03-16T11:02:35;2.92;;;1.55;;
16809;SDS011;51744;50.872;4.730;2023-03-16T11:05:25;3.15;;;1.70;;
16809;SDS011;51744;50.872;4.730;2023-03-16T11:08:18;2.55;;;1.60;;
16809;SDS011;51744;50.872;4.730;2023-03-16T11:11:08;3.80;;;1.70;;
16809;SDS011;51744;50.872;4.730;2023-03-16T11:14:00;3.20;;;1.90;;
16809;SDS011;51744;50.872;4.730;2023-03-16T11:16:50;2.30;;;1.63;;
16809;SDS011;51744;50.872;4.730;2023-03-16T11:19:48;3.40;;;1.60;;
16809;SDS011;51744;50.872;4.730;2023-03-16T11:22:38;3.60;;;1.80;;
16809;SDS011;51744;50.872;4.730;2023-03-16T11:25:30;3.47;;;1.65;;
16809;SDS011;51744;50.872;4.730;2023-03-16T11:28:28;3.47;;;1.80;;
16809;SDS011;51744;50.872;4.730;2023-03-16T11:31:24;2.13;;;1.60;;
16809;SDS011;51744;50.872;4.730;2023-03-16T11:34:27;6.50;;;3.30;;
16809;SDS011;51744;50.872;4.730;2023-03-16T11:37:20;3.60;;;1.80;;
16809;SDS011;51744;50.872;4.730;2023-03-16T11:40:19;2.77;;;1.70;;
16809;SDS011;51744;50.872;4.730;2023-03-16T11:43:20;3.95;;;2.00;;
16809;SDS011;51744;50.872;4.730;2023-03-16T11:46:22;2.00;;;1.80;;
16809;SDS011;51744;50.872;4.730;2023-03-16T11:49:22;3.08;;;1.80;;
16809;SDS011;51744;50.872;4.730;2023-03-16T11:52:28;3.47;;;1.80;;
16809;SDS011;51744;50.872;4.730;2023-03-16T11:55:33;4.27;;;2.10;;
16809;SDS011;51744;50.872;4.730;2023-03-16T11:58:28;3.50;;;1.80;;
16809;SDS011;51744;50.872;4.730;2023-03-16T12:01:30;2.40;;;1.75;;
16809;SDS011;51744;50.872;4.730;2023-03-16T12:04:47;3.45;;;1.73;;
16809;SDS011;51744;50.872;4.730;2023-03-16T12:07:45;3.47;;;1.65;;
16809;SDS011;51744;50.872;4.730;2023-03-16T12:10:42;3.10;;;2.03;;
16809;SDS011;51744;50.872;4.730;2023-03-16T12:13:40;3.58;;;2.55;;
16809;SDS011;51744;50.872;4.730;2023-03-16T12:16:44;2.90;;;2.30;;
16809;SDS011;51744;50.872;4.730;2023-03-16T12:19:38;3.77;;;1.87;;
16809;SDS011;51744;50.872;4.730;2023-03-16T12:22:28;2.88;;;1.85;;
16809;SDS011;51744;50.872;4.730;2023-03-16T12:25:30;2.85;;;1.75;;
16809;SDS011;51744;50.872;4.730;2023-03-16T12:28:22;3.28;;;1.77;;
16809;SDS011;51744;50.872;4.730;2023-03-16T12:31:13;3.42;;;1.90;;
16809;SDS011;51744;50.872;4.730;2023-03-16T12:34:06;2.97;;;1.90;;
16809;SDS011;51744;50.872;4.730;2023-03-16T12:37:08;4.05;;;2.10;;
16809;SDS011;51744;50.872;4.730;2023-03-16T12:43:19;2.47;;;1.77;;
16809;SDS011;51744;50.872;4.730;2023-03-16T12:46:19;3.20;;;1.80;;
16809;SDS011;51744;50.872;4.730;2023-03-16T12:49:14;2.80;;;1.60;;
16809;SDS011;51744;50.872;4.730;2023-03-16T12:52:04;2.30;;;1.70;;
16809;SDS011;51744;50.872;4.730;2023-03-16T12:55:05;2.95;;;1.60;;
16809;SDS011;51744;50.872;4.730;2023-03-16T12:58:00;4.78;;;1.90;;
16809;SDS011;51744;50.872;4.730;2023-03-16T13:00:54;2.88;;;1.70;;
16809;SDS011;51744;50.872;4.730;2023-03-16T13:03:45;2.75;;;1.65;;
16809;SDS011;51744;50.872;4.730;2023-03-16T13:06:34;2.28;;;1.60;;
16809;SDS011;51744;50.872;4.730;2023-03-16T13:09:23;2.20;;;1.70;;
16809;SDS011;51744;50.872;4.730;2023-03-16T13:12:20;3.50;;;1.80;;
16809;SDS011;51744;50.872;4.730;2023-03-16T13:15:23;3.22;;;1.60;;
16809;SDS011;51744;50.872;4.730;2023-03-16T13:18:20;2.33;;;1.60;;
16809;SDS011;51744;50.872;4.730;2023-03-16T13:21:13;3.10;;;1.60;;
16809;SDS011;51744;50.872;4.730;2023-03-16T13:24:13;2.27;;;1.60;;
16809;SDS011;51744;50.872;4.730;2023-03-16T13:27:14;2.50;;;1.45;;
16809;SDS011;51744;50.872;4.730;2023-03-16T13:30:16;2.97;;;1.60;;
16809;SDS011;51744;50.872;4.730;2023-03-16T13:33:08;2.72;;;1.60;;
16809;SDS011;51744;50.872;4.730;2023-03-16T13:36:05;3.20;;;1.73;;
16809;SDS011;51744;50.872;4.730;2023-03-16T13:39:01;2.57;;;1.60;;
16809;SDS011;51744;50.872;4.730;2023-03-16T13:41:58;3.08;;;1.50;;
16809;SDS011;51744;50.872;4.730;2023-03-16T13:44:47;2.10;;;1.50;;
16809;SDS011;51744;50.872;4.730;2023-03-16T13:47:40;2.47;;;1.60;;
16809;SDS011;51744;50.872;4.730;2023-03-16T13:50:30;2.60;;;1.60;;
16809;SDS011;51744;50.872;4.730;2023-03-16T13:53:20;2.80;;;1.50;;
16809;SDS011;51744;50.872;4.730;2023-03-16T13:56:11;1.65;;;1.40;;
16809;SDS011;51744;50.872;4.730;2023-03-16T13:59:00;2.65;;;1.60;;
16809;SDS011;51744;50.872;4.730;2023-03-16T14:01:53;2.55;;;1.58;;
16809;SDS011;51744;50.872;4.730;2023-03-16T14:04:44;1.90;;;1.30;;
16809;SDS011;51744;50.872;4.730;2023-03-16T14:07:35;2.23;;;1.40;;
16809;SDS011;51744;50.872;4.730;2023-03-16T14:10:23;1.63;;;1.33;;
16809;SDS011;51744;50.872;4.730;2023-03-16T14:13:22;2.22;;;1.40;;
16809;SDS011;51744;50.872;4.730;2023-03-16T14:16:18;4.53;;;1.52;;
16809;SDS011;51744;50.872;4.730;2023-03-16T14:19:11;2.13;;;1.60;;
16809;SDS011;51744;50.872;4.730;2023-03-16T14:22:04;3.30;;;1.50;;
16809;SDS011;51744;50.872;4.730;2023-03-16T14:24:53;2.00;;;1.50;;
16809;SDS011;51744;50.872;4.730;2023-03-16T14:27:44;2.17;;;1.50;;
16809;SDS011;51744;50.872;4.730;2023-03-16T14:30:31;3.22;;;1.50;;
16809;SDS011;51744;50.872;4.730;2023-03-16T14:33:23;1.40;;;1.30;;
16809;SDS011;51744;50.872;4.730;2023-03-16T14:36:16;3.03;;;1.80;;
16809;SDS011;51744;50.872;4.730;2023-03-16T14:39:12;3.25;;;2.50;;
16809;SDS011;51744;50.872;4.730;2023-03-16T14:42:02;2.97;;;1.83;;
16809;SDS011;51744;50.872;4.730;2023-03-16T14:44:51;2.47;;;1.60;;
16809;SDS011;51744;50.872;4.730;2023-03-16T14:47:40;2.33;;;1.50;;
16809;SDS011;51744;50.872;4.730;2023-03-16T14:50:28;2.50;;;1.50;;
16809;SDS011;51744;50.872;4.730;2023-03-16T14:53:19;2.28;;;1.50;;
16809;SDS011;51744;50.872;4.730;2023-03-16T14:56:11;3.10;;;2.00;;
16809;SDS011;51744;50.872;4.730;2023-03-16T14:58:59;3.25;;;1.65;;
16809;SDS011;51744;50.872;4.730;2023-03-16T15:01:47;2.73;;;1.50;;
16809;SDS011;51744;50.872;4.730;2023-03-16T15:04:36;1.80;;;1.40;;
16809;SDS011;51744;50.872;4.730;2023-03-16T15:07:23;2.42;;;1.70;;
16809;SDS011;51744;50.872;4.730;2023-03-16T15:10:16;2.97;;;1.30;;
16809;SDS011;51744;50.872;4.730;2023-03-16T15:13:11;2.08;;;1.55;;
16809;SDS011;51744;50.872;4.730;2023-03-16T15:16:10;2.42;;;1.58;;
16809;SDS011;51744;50.872;4.730;2023-03-16T15:18:59;1.92;;;1.40;;
16809;SDS011;51744;50.872;4.730;2023-03-16T15:21:46;2.43;;;1.30;;
16809;SDS011;51744;50.872;4.730;2023-03-16T15:24:34;2.25;;;1.50;;
16809;SDS011;51744;50.872;4.730;2023-03-16T15:27:22;1.83;;;1.40;;
16809;SDS011;51744;50.872;4.730;2023-03-16T15:30:16;1.92;;;1.50;;
16809;SDS011;51744;50.872;4.730;2023-03-16T15:33:07;3.50;;;1.80;;
16809;SDS011;51744;50.872;4.730;2023-03-16T15:35:55;1.87;;;1.43;;
16809;SDS011;51744;50.872;4.730;2023-03-16T15:38:44;3.60;;;1.60;;
16809;SDS011;51744;50.872;4.730;2023-03-16T15:41:33;3.20;;;1.80;;
16809;SDS011;51744;50.872;4.730;2023-03-16T15:44:32;1.83;;;1.63;;
16809;SDS011;51744;50.872;4.730;2023-03-16T15:47:21;1.98;;;1.55;;
16809;SDS011;51744;50.872;4.730;2023-03-16T15:50:09;1.90;;;1.65;;
16809;SDS011;51744;50.872;4.730;2023-03-16T15:53:00;2.60;;;1.70;;
16809;SDS011;51744;50.872;4.730;2023-03-16T15:55:51;4.15;;;2.40;;
16809;SDS011;51744;50.872;4.730;2023-03-16T15:58:43;2.72;;;1.70;;
16809;SDS011;51744;50.872;4.730;2023-03-16T16:01:35;2.78;;;1.65;;
16809;SDS011;51744;50.872;4.730;2023-03-16T16:04:31;2.00;;;1.50;;
16809;SDS011;51744;50.872;4.730;2023-03-16T16:07:18;2.17;;;1.50;;
16809;SDS011;51744;50.872;4.730;2023-03-16T16:10:07;2.22;;;1.50;;
16809;SDS011;51744;50.872;4.730;2023-03-16T16:12:58;2.85;;;1.88;;
16809;SDS011;51744;50.872;4.730;2023-03-16T16:15:47;2.97;;;1.60;;
16809;SDS011;51744;50.872;4.730;2023-03-16T16:18:34;2.85;;;1.70;;
16809;SDS011;51744;50.872;4.730;2023-03-16T16:21:25;1.95;;;1.60;;
16809;SDS011;51744;50.872;4.730;2023-03-16T16:24:15;2.88;;;1.70;;
16809;SDS011;51744;50.872;4.730;2023-03-16T16:27:03;2.78;;;1.60;;
16809;SDS011;51744;50.872;4.730;2023-03-16T16:29:52;3.05;;;1.55;;
16809;SDS011;51744;50.872;4.730;2023-03-16T16:32:40;2.10;;;1.67;;
16809;SDS011;51744;50.872;4.730;2023-03-16T16:35:27;2.55;;;1.70;;
16809;SDS011;51744;50.872;4.730;2023-03-16T16:38:17;2.35;;;1.70;;
16809;SDS011;51744;50.872;4.730;2023-03-16T16:41:06;3.15;;;1.73;;
16809;SDS011;51744;50.872;4.730;2023-03-16T16:43:55;2.22;;;1.77;;
16809;SDS011;51744;50.872;4.730;2023-03-16T16:46:44;2.28;;;1.67;;
16809;SDS011;51744;50.872;4.730;2023-03-16T16:49:35;2.25;;;1.67;;
16809;SDS011;51744;50.872;4.730;2023-03-16T16:52:22;3.33;;;1.92;;
16809;SDS011;51744;50.872;4.730;2023-03-16T16:55:11;2.85;;;1.75;;
16809;SDS011;51744;50.872;4.730;2023-03-16T16:57:59;2.55;;;1.88;;
16809;SDS011;51744;50.872;4.730;2023-03-16T17:00:53;2.40;;;1.90;;
16809;SDS011;51744;50.872;4.730;2023-03-16T17:03:43;2.00;;;1.80;;
16809;SDS011;51744;50.872;4.730;2023-03-16T17:06:31;3.00;;;1.90;;
16809;SDS011;51744;50.872;4.730;2023-03-16T17:09:19;2.63;;;1.80;;
16809;SDS011;51744;50.872;4.730;2023-03-16T17:12:10;3.25;;;1.90;;
16809;SDS011;51744;50.872;4.730;2023-03-16T17:15:05;6.32;;;3.50;;
16809;SDS011;51744;50.872;4.730;2023-03-16T17:18:13;5.07;;;2.90;;
16809;SDS011;51744;50.872;4.730;2023-03-16T17:21:02;8.90;;;4.95;;
16809;SDS011;51744;50.872;4.730;2023-03-16T17:23:51;7.20;;;3.80;;
16809;SDS011;51744;50.872;4.730;2023-03-16T17:26:40;4.43;;;3.47;;
16809;SDS011;51744;50.872;4.730;2023-03-16T17:29:31;4.78;;;3.70;;
16809;SDS011;51744;50.872;4.730;2023-03-16T17:32:20;4.38;;;3.25;;
16809;SDS011;51744;50.872;4.730;2023-03-16T17:35:11;3.83;;;3.35;;
16809;SDS011;51744;50.872;4.730;2023-03-16T17:38:00;5.72;;;4.70;;
16809;SDS011;51744;50.872;4.730;2023-03-16T17:40:48;4.70;;;2.95;;
16809;SDS011;51744;50.872;4.730;2023-03-16T17:43:36;3.88;;;2.72;;
16809;SDS011;51744;50.872;4.730;2023-03-16T17:46:26;4.05;;;2.10;;
16809;SDS011;51744;50.872;4.730;2023-03-16T17:49:16;2.87;;;1.90;;
16809;SDS011;51744;50.872;4.730;2023-03-16T17:52:10;5.50;;;4.05;;
16809;SDS011;51744;50.872;4.730;2023-03-16T17:55:02;11.33;;;10.20;;